Time;durP1;ratioP1;P1;durP2;ratioP2;P2;SDS_P1;SDS_P2;PMS_P1;PMS_P2;Temp;Humidity;BMP_temperature;BMP_pressure;BME280_temperature;BME280_humidity;BME280_pressure;Samples;Min_cycle;Max_cycle;Signal;HPM_P1;HPM_P2
2022/12/16 00:00:25;;;;;;;109.30;39.80;;;;;;;-142.25;100.00;58004.16;5032894;28;20487;-66
2022/12/16 00:02:51;;;;;;;118.37;38.87;;;;;;;-142.25;100.00;58004.16;5033628;28;20040;-65
2022/12/16 00:05:20;;;;;;;106.77;37.43;;;;;;;-142.25;100.00;58004.16;5032897;28;20380;-65
2022/12/16 00:07:47;;;;;;;106.50;39.60;;;;;;;-142.25;100.00;58004.16;5033883;28;20057;-65
2022/12/16 00:10:13;;;;;;;118.17;42.27;;;;;;;-142.25;100.00;58004.16;5034495;28;20044;-65
2022/12/16 00:12:39;;;;;;;112.00;39.30;;;;;;;-142.25;100.00;58004.16;5035224;28;20741;-66
2022/12/16 00:15:05;;;;;;;110.27;42.50;;;;;;;-142.25;100.00;58004.16;5033747;28;20041;-65
2022/12/16 00:17:30;;;;;;;114.83;40.37;;;;;;;-142.25;100.00;58004.16;5035257;28;20033;-65
2022/12/16 00:19:56;;;;;;;113.60;44.07;;;;;;;-142.25;100.00;58004.16;5034725;28;20040;-66
2022/12/16 00:22:22;;;;;;;109.80;40.00;;;;;;;-142.25;100.00;58004.16;5034501;28;20480;-64
2022/12/16 00:24:48;;;;;;;101.80;41.23;;;;;;;-142.25;100.00;58004.16;5042590;28;20063;-67
2022/12/16 00:27:20;;;;;;;111.10;41.37;;;;;;;-142.25;100.00;58004.16;5031731;28;20534;-64
2022/12/16 00:29:46;;;;;;;116.83;41.10;;;;;;;-142.25;100.00;58004.16;5027657;28;20115;-65
2022/12/16 00:32:11;;;;;;;131.93;41.90;;;;;;;-142.25;100.00;58004.16;5040208;28;20045;-64
2022/12/16 00:34:37;;;;;;;124.97;39.03;;;;;;;-142.25;100.00;58004.16;5036294;28;20072;-65
2022/12/16 00:37:03;;;;;;;132.20;44.33;;;;;;;-142.25;100.00;58004.16;5035495;28;20045;-65
2022/12/16 00:39:28;;;;;;;106.47;39.70;;;;;;;-142.25;100.00;58004.16;5034148;28;20037;-66
2022/12/16 00:41:54;;;;;;;112.40;40.00;;;;;;;-142.25;100.00;58004.16;5034266;28;20049;-64
2022/12/16 00:44:20;;;;;;;128.80;47.57;;;;;;;-142.25;100.00;58004.16;5033160;28;20041;-65
2022/12/16 00:46:45;;;;;;;115.43;43.27;;;;;;;-142.25;100.00;58004.16;5033164;28;20060;-64
2022/12/16 00:49:11;;;;;;;117.03;43.17;;;;;;;-142.25;100.00;58004.16;5032515;28;20160;-67
2022/12/16 00:51:37;;;;;;;120.77;40.70;;;;;;;-142.25;100.00;58004.16;5033652;28;20143;-67
2022/12/16 00:54:02;;;;;;;119.87;39.27;;;;;;;-142.25;100.00;58004.16;5033572;28;20041;-65
2022/12/16 00:56:28;;;;;;;122.10;41.27;;;;;;;-142.25;100.00;58004.16;5032070;28;20127;-65
2022/12/16 00:58:53;;;;;;;123.87;46.40;;;;;;;-142.25;100.00;58004.16;5031208;28;20041;-66
2022/12/16 01:01:19;;;;;;;106.47;40.23;;;;;;;-142.25;100.00;58004.16;5032759;28;20046;-65
2022/12/16 01:03:45;;;;;;;115.37;41.93;;;;;;;-142.25;100.00;58004.16;5031330;28;20115;-65
2022/12/16 01:06:13;;;;;;;119.67;41.47;;;;;;;-142.25;100.00;58004.16;5031224;28;20037;-65
2022/12/16 01:08:39;;;;;;;102.30;40.13;;;;;;;-142.25;100.00;58004.16;5033260;28;20025;-65
2022/12/16 01:11:05;;;;;;;105.17;38.50;;;;;;;-142.25;100.00;58004.16;5028261;28;20048;-65
2022/12/16 01:13:30;;;;;;;111.17;43.03;;;;;;;-142.25;100.00;58004.16;5028158;28;20463;-64
2022/12/16 01:16:00;;;;;;;119.13;43.40;;;;;;;-142.25;100.00;58004.16;5036182;28;20037;-65
2022/12/16 01:18:26;;;;;;;101.63;39.07;;;;;;;-142.25;100.00;58004.16;5026403;28;20135;-65
2022/12/16 01:20:51;;;;;;;112.33;41.47;;;;;;;-142.25;100.00;58004.16;5032313;28;20124;-65
2022/12/16 01:23:17;;;;;;;115.30;44.83;;;;;;;-142.25;100.00;58004.16;5031937;28;20174;-65
2022/12/16 01:25:43;;;;;;;115.53;42.07;;;;;;;-142.25;100.00;58004.16;5043548;28;20132;-65
2022/12/16 01:28:09;;;;;;;116.10;41.03;;;;;;;-142.25;100.00;58004.16;5027414;28;20964;-65
2022/12/16 01:30:35;;;;;;;112.63;43.87;;;;;;;-142.25;100.00;58004.16;5030605;28;20044;-65
2022/12/16 01:33:00;;;;;;;108.90;43.30;;;;;;;-142.25;100.00;58004.16;5032437;28;20037;-66
2022/12/16 01:35:26;;;;;;;110.33;43.23;;;;;;;-142.25;100.00;58004.16;5030832;28;20053;-63
2022/12/16 01:37:51;;;;;;;96.77;38.67;;;;;;;-142.25;100.00;58004.16;5026687;28;20044;-63
2022/12/16 01:40:21;;;;;;;102.27;37.50;;;;;;;-142.25;100.00;58004.16;5029958;28;20049;-64
2022/12/16 01:42:47;;;;;;;91.17;36.90;;;;;;;-142.25;100.00;58004.16;5032168;28;20120;-63
2022/12/16 01:45:33;;;;;;;96.97;39.57;;;;;;;-142.25;100.00;58004.16;5025892;28;20425;-65
2022/12/16 01:48:14;;;;;;;100.90;37.27;;;;;;;-142.25;100.00;58004.16;5026583;28;20055;-63
2022/12/16 01:50:41;;;;;;;85.67;38.00;;;;;;;-142.25;100.00;58004.16;5030085;28;20033;-63
2022/12/16 01:53:07;;;;;;;84.57;38.13;;;;;;;-142.25;100.00;58004.16;5033120;28;20073;-63
2022/12/16 01:55:44;;;;;;;93.27;39.53;;;;;;;-142.25;100.00;58004.16;5031314;28;20480;-63
2022/12/16 01:58:19;;;;;;;91.67;37.07;;;;;;;-142.25;100.00;58004.16;5032237;28;20483;-63
2022/12/16 02:00:45;;;;;;;96.50;37.30;;;;;;;-142.25;100.00;58004.16;5029875;28;20057;-63
2022/12/16 02:03:11;;;;;;;93.73;36.13;;;;;;;-142.25;100.00;58004.16;5023816;28;20435;-64
2022/12/16 02:05:44;;;;;;;79.57;35.37;;;;;;;-142.25;100.00;58004.16;5018027;22;20185;-78
2022/12/16 02:08:28;;;;;;;76.93;32.03;;;;;;;-142.25;100.00;58004.16;4970882;28;20560;-79
2022/12/16 02:11:07;;;;;;;67.20;33.03;;;;;;;-142.25;100.00;58004.16;5014961;23;20204;-66
2022/12/16 02:13:41;;;;;;;;;;;;;;;-142.25;100.00;58004.16;4975736;28;20050;-67
2022/12/16 02:16:31;;;;;;;60.57;25.93;;;;;;;-142.25;100.00;58004.16;4957941;28;19918;-67
2022/12/16 02:19:01;;;;;;;52.00;26.73;;;;;;;-142.25;100.00;58004.16;4963484;28;20042;-67
2022/12/16 02:21:56;;;;;;;58.50;25.80;;;;;;;-142.25;100.00;58004.16;4966012;28;20477;-67
2022/12/16 02:24:37;;;;;;;56.73;26.57;;;;;;;-142.25;100.00;58004.16;4963933;28;20046;-66
2022/12/16 02:27:11;;;;;;;55.47;26.43;;;;;;;-142.25;100.00;58004.16;4963856;28;20059;-67
2022/12/16 02:29:46;;;;;;;44.63;23.40;;;;;;;-142.25;100.00;58004.16;4965675;28;20044;-68
2022/12/16 02:33:14;;;;;;;39.92;20.33;;;;;;;-142.25;100.00;58004.16;4968161;28;20159;-68
2022/12/16 02:35:55;;;;;;;40.07;20.17;;;;;;;-142.25;100.00;58004.16;4915167;28;20114;-67
2022/12/16 02:38:28;;;;;;;37.37;21.13;;;;;;;-142.25;100.00;58004.16;4964303;28;20054;-66
2022/12/16 02:41:01;;;;;;;38.77;20.83;;;;;;;-142.25;100.00;58004.16;4968135;28;20046;-67
2022/12/16 02:43:43;;;;;;;35.90;19.97;;;;;;;-142.25;100.00;58004.16;4970160;28;20052;-67
2022/12/16 02:46:09;;;;;;;39.13;19.90;;;;;;;-142.25;100.00;58004.16;4962070;28;20046;-69
2022/12/16 02:48:34;;;;;;;37.43;19.20;;;;;;;-142.25;100.00;58004.16;4963826;28;20046;-66
2022/12/16 02:51:00;;;;;;;34.17;16.90;;;;;;;-142.25;100.00;58004.16;4964006;28;20543;-69
2022/12/16 02:53:27;;;;;;;35.50;19.87;;;;;;;-142.25;100.00;58004.16;4964818;28;20495;-67
2022/12/16 02:56:04;;;;;;;28.10;17.20;;;;;;;-142.25;100.00;58004.16;4963029;28;20070;-67
2022/12/16 02:58:41;;;;;;;31.40;17.43;;;;;;;-142.25;100.00;58004.16;4965450;28;20039;-68
2022/12/16 03:01:28;;;;;;;26.77;15.40;;;;;;;-142.25;100.00;58004.16;4968395;28;20170;-67
2022/12/16 03:04:06;;;;;;;25.20;15.40;;;;;;;-142.25;100.00;58004.16;4968561;28;20336;-68
2022/12/16 03:06:35;;;;;;;25.93;16.20;;;;;;;-142.25;100.00;58004.16;4965874;28;20485;-66
2022/12/16 03:09:04;;;;;;;28.17;15.20;;;;;;;-142.25;100.00;58004.16;4967643;28;20070;-66
2022/12/16 03:11:31;;;;;;;24.70;14.70;;;;;;;-142.25;100.00;58004.16;4967040;28;20625;-68
2022/12/16 03:13:58;;;;;;;31.27;14.83;;;;;;;-142.25;100.00;58004.16;4965492;28;20057;-67
2022/12/16 03:16:28;;;;;;;25.70;15.80;;;;;;;-142.25;100.00;58004.16;4964975;28;20603;-67
2022/12/16 03:19:00;;;;;;;20.10;13.57;;;;;;;-142.25;100.00;58004.16;4962440;28;20506;-69
2022/12/16 03:21:30;;;;;;;22.93;13.97;;;;;;;-142.25;100.00;58004.16;4963630;28;20386;-66
2022/12/16 03:24:02;;;;;;;23.63;14.20;;;;;;;-142.25;100.00;58004.16;4963907;28;20043;-69
2022/12/16 03:26:41;;;;;;;20.00;12.43;;;;;;;-142.25;100.00;58004.16;4970322;28;20397;-68
2022/12/16 03:29:06;;;;;;;20.83;12.80;;;;;;;-142.25;100.00;58004.16;4966045;28;20046;-68
2022/12/16 03:31:56;;;;;;;17.80;11.17;;;;;;;-142.25;100.00;58004.16;4962945;28;20078;-67
2022/12/16 03:34:49;;;;;;;18.33;12.17;;;;;;;-142.25;100.00;58004.16;4964184;28;20108;-66
2022/12/16 03:37:15;;;;;;;20.40;13.13;;;;;;;-142.25;100.00;58004.16;4966019;28;20046;-67
2022/12/16 03:39:48;;;;;;;21.13;13.03;;;;;;;-142.25;100.00;58004.16;4965455;28;20101;-68
2022/12/16 03:42:14;;;;;;;19.10;12.50;;;;;;;-142.25;100.00;58004.16;4966300;28;20053;-68
2022/12/16 03:44:42;;;;;;;20.50;13.50;;;;;;;-142.25;100.00;58004.16;4964023;28;20053;-68
2022/12/16 03:47:08;;;;;;;18.63;12.47;;;;;;;-142.25;100.00;58004.16;4963643;28;20055;-68
2022/12/16 03:49:34;;;;;;;21.40;13.67;;;;;;;-142.25;100.00;58004.16;4967800;28;20121;-69
2022/12/16 03:51:59;;;;;;;16.37;11.87;;;;;;;-142.25;100.00;58004.16;4967810;28;20408;-67
2022/12/16 03:54:25;;;;;;;19.97;13.20;;;;;;;-142.25;100.00;58004.16;4967407;28;20086;-69
2022/12/16 03:56:51;;;;;;;18.47;12.17;;;;;;;-142.25;100.00;58004.16;4950733;28;20066;-67
2022/12/16 03:59:17;;;;;;;20.07;12.37;;;;;;;-142.25;100.00;58004.16;4935274;28;20286;-68
2022/12/16 04:01:42;;;;;;;20.87;13.03;;;;;;;-142.25;100.00;58004.16;4967357;28;20495;-67
2022/12/16 04:04:09;;;;;;;22.77;13.03;;;;;;;-142.25;100.00;58004.16;4964763;28;20074;-65
2022/12/16 04:06:34;;;;;;;22.93;13.90;;;;;;;-142.25;100.00;58004.16;4962736;28;20408;-68
2022/12/16 04:09:00;;;;;;;18.43;11.93;;;;;;;-142.25;100.00;58004.16;4964221;28;20047;-67
2022/12/16 04:25:27;;;;;;;16.53;11.87;;;;;;;-142.25;100.00;58004.16;4964049;28;20142;-68
2022/12/16 04:27:53;;;;;;;18.87;11.77;;;;;;;-142.25;100.00;58004.16;4965765;28;20057;-67
2022/12/16 04:30:20;;;;;;;19.60;12.07;;;;;;;-142.25;100.00;58004.16;4967489;28;20126;-67
